Aeroporto :
LOGIN :

Iscrizione | Disclaimer

   EN    FR    IT 

 










Sommario :    VFR   VFR Marginale   IFR   IFR Intensivo   IFR Molto Intensivo
Visibilità : 
Base nubi : 
>= 8 km
>= 3000ft
5 / 8 km
1000 / 3000 ft
1500m / 5 km
500 / 1000 ft
800 / 1500m
200 / 500 ft
< 800m
< 200 ft
Simboli :   Temporali  Nebbia  Neve Forte  Precipitazioni Forti  Vento > 20 kt
SIGMETs :   Varie  Temporali  Ghiacco  Turbolenza  Onda orograficha  Ceneri Vulcaniche






- Altitudine del aeroporto : 80 ft
- Codice IATA : LPL


EGGP - Liverpool John Lennon

ULTIMO METAR :
  • 110650Z 32010KT 9999 FEW018 SCT022 14/09 Q1026

METARs OBSOLETI :
  • 110620Z 31008KT 9999 FEW018 SCT025 14/09 Q1026
  • 110550Z 30009KT 9999 FEW018 SCT038 14/09 Q1025
  • 110520Z 31007KT 9999 SCT038 13/09 Q1025
  • 110450Z 30007KT 9999 SCT025 13/09 Q1025
  • 110420Z AUTO 30009KT 9999 SCT021/// BKN026/// BKN032/// 13/09 Q1025

TAF TAF EGGP
Valido dal 11 a 06 ore il 12 a 06 ore UTC


110453Z 1106/1206 30009KT 9999 FEW030
PROB30
TEMPO 1106/1112 9000 -SHRA
PROB30 1200/1206 8000
ATIS : +44 151 907 2000 (option 5 or ext 5150)
Met : +44 871 750 5150



MetMap, La meteo Aeronautica in un colpo d'occhio ! - Copyright ORBIFLY Dicembre 2007 - Disclaimer

ORBIFLY MET'MAP TEAM :

Programmazione e sviluppo : Alexandra Zaïnal
Concezione : Baudouin d'Aumeries
Aiuto per la programmazione : Marc-Olivier Méhu
Supporto tecnico e logistico : Manuel Goepfert
Aiuto per la traduzione : Arnaldo La Scala

Contatto : metmap@orbifly.com




FONTI E CREDITI :

   NOAA